sensor_id;sensor_type;location;lat;lon;timestamp;P1;durP1;ratioP1;P2;durP2;ratioP2
22973;SDS011;11653;50.848;4.584;2022-08-19T00:00:07;18.87;;;14.20;;
22973;SDS011;11653;50.848;4.584;2022-08-19T00:02:35;17.07;;;14.27;;
22973;SDS011;11653;50.848;4.584;2022-08-19T00:05:01;16.93;;;14.80;;
22973;SDS011;11653;50.848;4.584;2022-08-19T00:07:27;23.90;;;14.63;;
22973;SDS011;11653;50.848;4.584;2022-08-19T00:09:53;16.07;;;14.23;;
22973;SDS011;11653;50.848;4.584;2022-08-19T00:12:19;15.90;;;14.20;;
22973;SDS011;11653;50.848;4.584;2022-08-19T00:14:44;16.53;;;14.73;;
22973;SDS011;11653;50.848;4.584;2022-08-19T00:17:10;17.73;;;15.93;;
22973;SDS011;11653;50.848;4.584;2022-08-19T00:19:36;21.00;;;16.93;;
22973;SDS011;11653;50.848;4.584;2022-08-19T00:22:02;19.23;;;15.67;;
22973;SDS011;11653;50.848;4.584;2022-08-19T00:24:30;19.53;;;16.23;;
22973;SDS011;11653;50.848;4.584;2022-08-19T00:26:56;18.87;;;15.93;;
22973;SDS011;11653;50.848;4.584;2022-08-19T00:29:22;19.83;;;16.73;;
22973;SDS011;11653;50.848;4.584;2022-08-19T00:31:49;22.07;;;16.17;;
22973;SDS011;11653;50.848;4.584;2022-08-19T00:34:19;19.00;;;15.57;;
22973;SDS011;11653;50.848;4.584;2022-08-19T00:36:46;19.73;;;15.43;;
22973;SDS011;11653;50.848;4.584;2022-08-19T00:39:13;19.83;;;15.63;;
22973;SDS011;11653;50.848;4.584;2022-08-19T00:41:40;17.03;;;15.23;;
22973;SDS011;11653;50.848;4.584;2022-08-19T00:44:09;20.33;;;16.20;;
22973;SDS011;11653;50.848;4.584;2022-08-19T00:46:41;38.83;;;24.57;;
22973;SDS011;11653;50.848;4.584;2022-08-19T00:49:15;56.00;;;34.00;;
22973;SDS011;11653;50.848;4.584;2022-08-19T00:51:46;71.03;;;40.37;;
22973;SDS011;11653;50.848;4.584;2022-08-19T00:54:15;40.73;;;27.67;;
22973;SDS011;11653;50.848;4.584;2022-08-19T00:56:42;40.10;;;25.67;;
22973;SDS011;11653;50.848;4.584;2022-08-19T00:59:09;45.80;;;30.77;;
22973;SDS011;11653;50.848;4.584;2022-08-19T01:01:36;36.97;;;25.87;;
22973;SDS011;11653;50.848;4.584;2022-08-19T01:04:03;43.17;;;29.07;;
22973;SDS011;11653;50.848;4.584;2022-08-19T01:06:30;37.20;;;27.07;;
22973;SDS011;11653;50.848;4.584;2022-08-19T01:08:57;34.63;;;25.20;;
22973;SDS011;11653;50.848;4.584;2022-08-19T01:11:23;41.30;;;28.33;;
22973;SDS011;11653;50.848;4.584;2022-08-19T01:13:50;42.63;;;29.87;;
22973;SDS011;11653;50.848;4.584;2022-08-19T01:16:18;43.93;;;28.07;;
22973;SDS011;11653;50.848;4.584;2022-08-19T01:18:46;45.43;;;31.30;;
22973;SDS011;11653;50.848;4.584;2022-08-19T01:21:34;45.17;;;29.23;;
22973;SDS011;11653;50.848;4.584;2022-08-19T01:24:07;45.27;;;29.57;;
22973;SDS011;11653;50.848;4.584;2022-08-19T01:26:34;50.57;;;32.83;;
22973;SDS011;11653;50.848;4.584;2022-08-19T01:29:06;55.37;;;34.53;;
22973;SDS011;11653;50.848;4.584;2022-08-19T01:31:33;54.60;;;33.77;;
22973;SDS011;11653;50.848;4.584;2022-08-19T01:33:59;56.00;;;35.33;;
22973;SDS011;11653;50.848;4.584;2022-08-19T01:36:35;57.07;;;34.43;;
22973;SDS011;11653;50.848;4.584;2022-08-19T01:39:08;69.07;;;37.93;;
22973;SDS011;11653;50.848;4.584;2022-08-19T01:41:36;68.83;;;39.73;;
22973;SDS011;11653;50.848;4.584;2022-08-19T01:44:02;70.87;;;42.33;;
22973;SDS011;11653;50.848;4.584;2022-08-19T01:46:29;77.80;;;42.63;;
22973;SDS011;11653;50.848;4.584;2022-08-19T01:48:56;79.33;;;43.47;;
22973;SDS011;11653;50.848;4.584;2022-08-19T01:51:22;80.97;;;44.87;;
22973;SDS011;11653;50.848;4.584;2022-08-19T01:53:48;79.60;;;43.13;;
22973;SDS011;11653;50.848;4.584;2022-08-19T01:56:14;74.13;;;42.57;;
22973;SDS011;11653;50.848;4.584;2022-08-19T01:58:41;78.37;;;42.90;;
22973;SDS011;11653;50.848;4.584;2022-08-19T02:01:13;79.33;;;43.67;;
22973;SDS011;11653;50.848;4.584;2022-08-19T02:03:39;78.67;;;43.17;;
22973;SDS011;11653;50.848;4.584;2022-08-19T02:06:05;77.10;;;41.97;;
22973;SDS011;11653;50.848;4.584;2022-08-19T02:08:32;86.93;;;44.27;;
22973;SDS011;11653;50.848;4.584;2022-08-19T02:10:59;77.63;;;41.07;;
22973;SDS011;11653;50.848;4.584;2022-08-19T02:13:25;70.23;;;39.57;;
22973;SDS011;11653;50.848;4.584;2022-08-19T02:15:51;73.03;;;39.50;;
22973;SDS011;11653;50.848;4.584;2022-08-19T02:18:17;70.90;;;40.03;;
22973;SDS011;11653;50.848;4.584;2022-08-19T02:20:43;69.13;;;40.27;;
22973;SDS011;11653;50.848;4.584;2022-08-19T02:23:10;67.37;;;39.00;;
22973;SDS011;11653;50.848;4.584;2022-08-19T02:25:38;66.70;;;38.70;;
22973;SDS011;11653;50.848;4.584;2022-08-19T02:28:04;69.80;;;38.40;;
22973;SDS011;11653;50.848;4.584;2022-08-19T02:30:30;59.67;;;36.60;;
22973;SDS011;11653;50.848;4.584;2022-08-19T02:32:56;68.23;;;37.53;;
22973;SDS011;11653;50.848;4.584;2022-08-19T02:35:22;62.60;;;36.03;;
22973;SDS011;11653;50.848;4.584;2022-08-19T02:37:49;56.50;;;33.23;;
22973;SDS011;11653;50.848;4.584;2022-08-19T02:40:33;54.93;;;31.83;;
22973;SDS011;11653;50.848;4.584;2022-08-19T02:43:00;52.47;;;31.40;;
22973;SDS011;11653;50.848;4.584;2022-08-19T02:45:27;54.07;;;32.67;;
22973;SDS011;11653;50.848;4.584;2022-08-19T02:47:56;51.00;;;30.77;;
22973;SDS011;11653;50.848;4.584;2022-08-19T02:50:22;55.17;;;32.23;;
22973;SDS011;11653;50.848;4.584;2022-08-19T02:52:48;56.93;;;33.50;;
22973;SDS011;11653;50.848;4.584;2022-08-19T02:55:13;62.57;;;32.93;;
22973;SDS011;11653;50.848;4.584;2022-08-19T02:57:39;55.27;;;33.23;;
22973;SDS011;11653;50.848;4.584;2022-08-19T03:00:07;56.50;;;33.33;;
22973;SDS011;11653;50.848;4.584;2022-08-19T03:02:37;55.93;;;33.17;;
22973;SDS011;11653;50.848;4.584;2022-08-19T03:05:04;53.60;;;31.63;;
22973;SDS011;11653;50.848;4.584;2022-08-19T03:07:30;57.30;;;33.63;;
22973;SDS011;11653;50.848;4.584;2022-08-19T03:09:56;61.10;;;34.07;;
22973;SDS011;11653;50.848;4.584;2022-08-19T03:12:22;51.50;;;31.87;;
22973;SDS011;11653;50.848;4.584;2022-08-19T03:14:47;62.53;;;34.17;;
22973;SDS011;11653;50.848;4.584;2022-08-19T03:17:13;58.77;;;34.27;;
22973;SDS011;11653;50.848;4.584;2022-08-19T03:19:39;59.07;;;33.27;;
22973;SDS011;11653;50.848;4.584;2022-08-19T03:22:04;63.80;;;37.30;;
22973;SDS011;11653;50.848;4.584;2022-08-19T03:24:30;58.10;;;31.90;;
22973;SDS011;11653;50.848;4.584;2022-08-19T03:26:57;59.60;;;32.33;;
22973;SDS011;11653;50.848;4.584;2022-08-19T03:29:24;63.37;;;34.70;;
22973;SDS011;11653;50.848;4.584;2022-08-19T03:31:51;55.77;;;32.00;;
22973;SDS011;11653;50.848;4.584;2022-08-19T03:34:26;63.87;;;34.50;;
22973;SDS011;11653;50.848;4.584;2022-08-19T03:36:53;58.63;;;32.57;;
22973;SDS011;11653;50.848;4.584;2022-08-19T03:39:21;56.87;;;33.07;;
22973;SDS011;11653;50.848;4.584;2022-08-19T03:41:48;58.33;;;33.07;;
22973;SDS011;11653;50.848;4.584;2022-08-19T03:44:19;53.13;;;31.83;;
22973;SDS011;11653;50.848;4.584;2022-08-19T03:46:47;61.70;;;33.10;;
22973;SDS011;11653;50.848;4.584;2022-08-19T03:49:14;52.77;;;30.17;;
22973;SDS011;11653;50.848;4.584;2022-08-19T03:51:41;53.87;;;30.90;;
22973;SDS011;11653;50.848;4.584;2022-08-19T03:54:08;55.60;;;30.43;;
22973;SDS011;11653;50.848;4.584;2022-08-19T03:56:36;55.97;;;31.50;;
22973;SDS011;11653;50.848;4.584;2022-08-19T03:59:03;51.23;;;30.20;;
22973;SDS011;11653;50.848;4.584;2022-08-19T04:01:30;50.03;;;28.97;;
22973;SDS011;11653;50.848;4.584;2022-08-19T04:03:56;50.33;;;29.53;;
22973;SDS011;11653;50.848;4.584;2022-08-19T04:06:25;49.33;;;29.63;;
22973;SDS011;11653;50.848;4.584;2022-08-19T04:08:54;48.60;;;29.73;;
22973;SDS011;11653;50.848;4.584;2022-08-19T04:11:21;52.00;;;29.20;;
22973;SDS011;11653;50.848;4.584;2022-08-19T04:13:50;44.60;;;28.87;;
22973;SDS011;11653;50.848;4.584;2022-08-19T04:16:17;46.30;;;27.43;;
22973;SDS011;11653;50.848;4.584;2022-08-19T04:18:45;51.70;;;29.40;;
22973;SDS011;11653;50.848;4.584;2022-08-19T04:21:15;49.07;;;28.77;;
22973;SDS011;11653;50.848;4.584;2022-08-19T04:23:42;51.37;;;29.57;;
22973;SDS011;11653;50.848;4.584;2022-08-19T04:26:11;54.37;;;29.40;;
22973;SDS011;11653;50.848;4.584;2022-08-19T04:28:39;51.70;;;29.27;;
22973;SDS011;11653;50.848;4.584;2022-08-19T04:31:04;51.30;;;27.80;;
22973;SDS011;11653;50.848;4.584;2022-08-19T04:33:30;50.90;;;28.20;;
22973;SDS011;11653;50.848;4.584;2022-08-19T04:35:56;49.10;;;28.53;;
22973;SDS011;11653;50.848;4.584;2022-08-19T04:38:23;46.60;;;28.30;;
22973;SDS011;11653;50.848;4.584;2022-08-19T04:40:50;48.40;;;28.17;;
22973;SDS011;11653;50.848;4.584;2022-08-19T04:43:36;52.00;;;29.13;;
22973;SDS011;11653;50.848;4.584;2022-08-19T04:46:06;49.47;;;28.23;;
22973;SDS011;11653;50.848;4.584;2022-08-19T04:48:33;47.90;;;28.37;;
22973;SDS011;11653;50.848;4.584;2022-08-19T04:50:59;48.40;;;27.87;;
22973;SDS011;11653;50.848;4.584;2022-08-19T04:53:28;44.63;;;25.90;;
22973;SDS011;11653;50.848;4.584;2022-08-19T04:55:55;49.20;;;27.10;;
22973;SDS011;11653;50.848;4.584;2022-08-19T04:58:23;45.90;;;26.50;;
22973;SDS011;11653;50.848;4.584;2022-08-19T05:00:49;44.07;;;25.37;;
22973;SDS011;11653;50.848;4.584;2022-08-19T05:03:15;50.50;;;27.10;;
22973;SDS011;11653;50.848;4.584;2022-08-19T05:05:42;46.07;;;25.83;;
22973;SDS011;11653;50.848;4.584;2022-08-19T05:08:17;44.90;;;25.90;;
22973;SDS011;11653;50.848;4.584;2022-08-19T05:10:48;43.07;;;25.67;;
22973;SDS011;11653;50.848;4.584;2022-08-19T05:13:16;44.60;;;25.97;;
22973;SDS011;11653;50.848;4.584;2022-08-19T05:15:43;46.17;;;25.80;;
22973;SDS011;11653;50.848;4.584;2022-08-19T05:18:17;43.63;;;25.83;;
22973;SDS011;11653;50.848;4.584;2022-08-19T05:21:05;44.83;;;25.13;;
22973;SDS011;11653;50.848;4.584;2022-08-19T05:23:54;47.80;;;25.70;;
22973;SDS011;11653;50.848;4.584;2022-08-19T05:26:19;45.13;;;26.80;;
22973;SDS011;11653;50.848;4.584;2022-08-19T05:28:46;49.13;;;27.23;;
22973;SDS011;11653;50.848;4.584;2022-08-19T05:31:12;49.13;;;27.50;;
22973;SDS011;11653;50.848;4.584;2022-08-19T05:33:37;42.47;;;25.47;;
22973;SDS011;11653;50.848;4.584;2022-08-19T05:36:05;47.83;;;24.60;;
22973;SDS011;11653;50.848;4.584;2022-08-19T05:38:32;43.50;;;24.50;;
22973;SDS011;11653;50.848;4.584;2022-08-19T05:40:58;45.33;;;23.37;;
22973;SDS011;11653;50.848;4.584;2022-08-19T05:43:24;42.77;;;24.80;;
22973;SDS011;11653;50.848;4.584;2022-08-19T05:45:50;40.73;;;23.17;;
22973;SDS011;11653;50.848;4.584;2022-08-19T05:48:16;43.13;;;22.90;;
22973;SDS011;11653;50.848;4.584;2022-08-19T05:50:45;37.37;;;22.23;;
22973;SDS011;11653;50.848;4.584;2022-08-19T05:53:11;37.13;;;22.93;;
22973;SDS011;11653;50.848;4.584;2022-08-19T05:55:39;38.37;;;22.23;;
22973;SDS011;11653;50.848;4.584;2022-08-19T05:58:05;34.53;;;21.63;;
22973;SDS011;11653;50.848;4.584;2022-08-19T06:00:32;35.30;;;21.47;;
22973;SDS011;11653;50.848;4.584;2022-08-19T06:02:58;32.23;;;20.43;;
22973;SDS011;11653;50.848;4.584;2022-08-19T06:05:28;32.23;;;20.73;;
22973;SDS011;11653;50.848;4.584;2022-08-19T06:07:57;28.40;;;18.07;;
22973;SDS011;11653;50.848;4.584;2022-08-19T06:10:23;29.13;;;18.70;;
22973;SDS011;11653;50.848;4.584;2022-08-19T06:12:49;28.23;;;18.80;;
22973;SDS011;11653;50.848;4.584;2022-08-19T06:15:15;26.30;;;17.80;;
22973;SDS011;11653;50.848;4.584;2022-08-19T06:17:41;30.30;;;18.30;;
22973;SDS011;11653;50.848;4.584;2022-08-19T06:20:10;27.73;;;17.20;;
22973;SDS011;11653;50.848;4.584;2022-08-19T06:22:42;26.63;;;16.57;;
22973;SDS011;11653;50.848;4.584;2022-08-19T06:25:11;24.40;;;16.67;;
22973;SDS011;11653;50.848;4.584;2022-08-19T06:27:37;25.43;;;15.73;;
22973;SDS011;11653;50.848;4.584;2022-08-19T06:30:04;21.93;;;15.13;;
22973;SDS011;11653;50.848;4.584;2022-08-19T06:32:30;20.03;;;14.80;;
22973;SDS011;11653;50.848;4.584;2022-08-19T06:34:56;24.43;;;14.27;;
22973;SDS011;11653;50.848;4.584;2022-08-19T06:37:22;20.73;;;14.30;;
22973;SDS011;11653;50.848;4.584;2022-08-19T06:39:48;24.30;;;13.93;;
22973;SDS011;11653;50.848;4.584;2022-08-19T06:42:14;21.40;;;13.53;;
22973;SDS011;11653;50.848;4.584;2022-08-19T06:44:43;18.90;;;12.83;;
22973;SDS011;11653;50.848;4.584;2022-08-19T06:47:13;16.70;;;12.10;;
22973;SDS011;11653;50.848;4.584;2022-08-19T06:49:42;19.20;;;13.33;;
22973;SDS011;11653;50.848;4.584;2022-08-19T06:52:08;17.43;;;10.83;;
22973;SDS011;11653;50.848;4.584;2022-08-19T06:54:38;17.07;;;10.63;;
22973;SDS011;11653;50.848;4.584;2022-08-19T06:57:04;18.10;;;10.23;;
22973;SDS011;11653;50.848;4.584;2022-08-19T06:59:31;16.53;;;9.57;;
22973;SDS011;11653;50.848;4.584;2022-08-19T07:01:58;14.77;;;9.17;;
22973;SDS011;11653;50.848;4.584;2022-08-19T07:04:27;15.40;;;8.77;;
22973;SDS011;11653;50.848;4.584;2022-08-19T07:07:00;12.37;;;7.73;;
22973;SDS011;11653;50.848;4.584;2022-08-19T07:09:32;12.60;;;7.97;;
22973;SDS011;11653;50.848;4.584;2022-08-19T07:11:59;13.27;;;7.70;;
22973;SDS011;11653;50.848;4.584;2022-08-19T07:14:27;12.13;;;7.20;;
22973;SDS011;11653;50.848;4.584;2022-08-19T07:16:55;11.23;;;6.73;;
22973;SDS011;11653;50.848;4.584;2022-08-19T07:19:22;12.63;;;7.13;;
22973;SDS011;11653;50.848;4.584;2022-08-19T07:21:51;11.30;;;6.57;;
22973;SDS011;11653;50.848;4.584;2022-08-19T07:24:18;9.65;;;6.10;;
22973;SDS011;11653;50.848;4.584;2022-08-19T07:26:51;9.20;;;5.43;;
22973;SDS011;11653;50.848;4.584;2022-08-19T07:29:19;8.63;;;5.38;;
22973;SDS011;11653;50.848;4.584;2022-08-19T07:31:47;8.68;;;4.65;;
22973;SDS011;11653;50.848;4.584;2022-08-19T07:34:14;10.07;;;5.77;;
22973;SDS011;11653;50.848;4.584;2022-08-19T07:36:41;8.85;;;5.07;;
22973;SDS011;11653;50.848;4.584;2022-08-19T07:39:17;9.07;;;5.00;;
22973;SDS011;11653;50.848;4.584;2022-08-19T07:41:45;9.37;;;4.70;;
22973;SDS011;11653;50.848;4.584;2022-08-19T07:44:12;7.70;;;4.60;;
22973;SDS011;11653;50.848;4.584;2022-08-19T07:46:40;7.50;;;4.10;;
22973;SDS011;11653;50.848;4.584;2022-08-19T07:49:09;8.48;;;5.40;;
22973;SDS011;11653;50.848;4.584;2022-08-19T07:51:42;6.70;;;4.28;;
22973;SDS011;11653;50.848;4.584;2022-08-19T07:54:08;7.45;;;5.40;;
22973;SDS011;11653;50.848;4.584;2022-08-19T07:56:34;9.83;;;5.53;;
22973;SDS011;11653;50.848;4.584;2022-08-19T07:59:00;8.80;;;5.40;;
22973;SDS011;11653;50.848;4.584;2022-08-19T08:01:26;9.53;;;5.93;;
22973;SDS011;11653;50.848;4.584;2022-08-19T08:03:53;10.80;;;5.80;;
22973;SDS011;11653;50.848;4.584;2022-08-19T08:06:38;9.47;;;5.43;;
22973;SDS011;11653;50.848;4.584;2022-08-19T08:09:24;11.90;;;5.77;;
22973;SDS011;11653;50.848;4.584;2022-08-19T08:14:21;11.97;;;6.93;;
22973;SDS011;11653;50.848;4.584;2022-08-19T08:16:59;10.13;;;7.13;;
22973;SDS011;11653;50.848;4.584;2022-08-19T08:19:26;8.43;;;5.57;;
22973;SDS011;11653;50.848;4.584;2022-08-19T08:21:54;12.13;;;5.60;;
22973;SDS011;11653;50.848;4.584;2022-08-19T08:24:22;13.60;;;6.20;;
22973;SDS011;11653;50.848;4.584;2022-08-19T08:26:48;9.07;;;6.00;;
22973;SDS011;11653;50.848;4.584;2022-08-19T08:29:14;7.53;;;5.37;;
22973;SDS011;11653;50.848;4.584;2022-08-19T08:31:41;12.77;;;6.43;;
22973;SDS011;11653;50.848;4.584;2022-08-19T08:34:08;10.73;;;5.33;;
22973;SDS011;11653;50.848;4.584;2022-08-19T08:36:36;9.80;;;6.23;;
22973;SDS011;11653;50.848;4.584;2022-08-19T08:39:06;12.90;;;5.43;;
22973;SDS011;11653;50.848;4.584;2022-08-19T08:41:37;7.27;;;5.50;;
22973;SDS011;11653;50.848;4.584;2022-08-19T08:44:15;10.07;;;5.70;;
22973;SDS011;11653;50.848;4.584;2022-08-19T08:46:46;7.47;;;4.80;;
22973;SDS011;11653;50.848;4.584;2022-08-19T08:49:40;13.93;;;5.13;;
22973;SDS011;11653;50.848;4.584;2022-08-19T08:52:11;11.63;;;5.17;;
22973;SDS011;11653;50.848;4.584;2022-08-19T08:55:03;8.77;;;4.80;;
22973;SDS011;11653;50.848;4.584;2022-08-19T08:57:35;7.67;;;5.20;;
22973;SDS011;11653;50.848;4.584;2022-08-19T09:00:36;6.60;;;4.60;;
22973;SDS011;11653;50.848;4.584;2022-08-19T09:03:38;7.23;;;4.43;;
22973;SDS011;11653;50.848;4.584;2022-08-19T09:08:29;7.60;;;4.27;;
22973;SDS011;11653;50.848;4.584;2022-08-19T09:11:10;6.43;;;4.50;;
22973;SDS011;11653;50.848;4.584;2022-08-19T09:14:02;6.80;;;3.83;;
22973;SDS011;11653;50.848;4.584;2022-08-19T09:16:31;6.27;;;3.60;;
22973;SDS011;11653;50.848;4.584;2022-08-19T09:18:58;6.93;;;3.63;;
22973;SDS011;11653;50.848;4.584;2022-08-19T09:21:28;5.00;;;3.70;;
22973;SDS011;11653;50.848;4.584;2022-08-19T09:23:53;5.73;;;3.80;;
22973;SDS011;11653;50.848;4.584;2022-08-19T09:26:20;6.77;;;4.03;;
22973;SDS011;11653;50.848;4.584;2022-08-19T09:28:47;5.77;;;3.70;;
22973;SDS011;11653;50.848;4.584;2022-08-19T09:31:18;6.97;;;3.97;;
22973;SDS011;11653;50.848;4.584;2022-08-19T09:33:46;5.83;;;3.97;;
22973;SDS011;11653;50.848;4.584;2022-08-19T09:36:14;5.47;;;3.27;;
22973;SDS011;11653;50.848;4.584;2022-08-19T09:38:41;4.83;;;3.80;;
22973;SDS011;11653;50.848;4.584;2022-08-19T09:41:10;7.73;;;4.20;;
22973;SDS011;11653;50.848;4.584;2022-08-19T09:43:38;6.67;;;3.97;;
22973;SDS011;11653;50.848;4.584;2022-08-19T09:46:06;6.83;;;3.53;;
22973;SDS011;11653;50.848;4.584;2022-08-19T09:48:34;6.07;;;3.87;;
22973;SDS011;11653;50.848;4.584;2022-08-19T09:51:08;6.70;;;3.57;;
22973;SDS011;11653;50.848;4.584;2022-08-19T09:53:36;6.00;;;4.27;;
22973;SDS011;11653;50.848;4.584;2022-08-19T09:56:02;7.30;;;4.50;;
22973;SDS011;11653;50.848;4.584;2022-08-19T09:58:29;8.93;;;3.87;;
22973;SDS011;11653;50.848;4.584;2022-08-19T10:00:55;6.07;;;4.20;;
22973;SDS011;11653;50.848;4.584;2022-08-19T10:03:26;11.50;;;4.60;;
22973;SDS011;11653;50.848;4.584;2022-08-19T10:05:53;8.33;;;4.70;;
22973;SDS011;11653;50.848;4.584;2022-08-19T10:10:53;9.20;;;4.20;;
22973;SDS011;11653;50.848;4.584;2022-08-19T10:13:29;8.37;;;4.50;;
22973;SDS011;11653;50.848;4.584;2022-08-19T10:16:02;8.63;;;4.50;;
22973;SDS011;11653;50.848;4.584;2022-08-19T10:18:32;6.50;;;4.80;;
22973;SDS011;11653;50.848;4.584;2022-08-19T10:23:47;10.37;;;4.77;;
22973;SDS011;11653;50.848;4.584;2022-08-19T10:26:16;7.87;;;4.80;;
22973;SDS011;11653;50.848;4.584;2022-08-19T10:28:47;9.57;;;5.47;;
22973;SDS011;11653;50.848;4.584;2022-08-19T10:31:15;7.57;;;4.20;;
22973;SDS011;11653;50.848;4.584;2022-08-19T10:33:44;7.67;;;4.13;;
22973;SDS011;11653;50.848;4.584;2022-08-19T10:36:15;8.53;;;4.40;;
22973;SDS011;11653;50.848;4.584;2022-08-19T10:38:48;7.47;;;3.90;;
22973;SDS011;11653;50.848;4.584;2022-08-19T10:41:26;9.03;;;3.73;;
22973;SDS011;11653;50.848;4.584;2022-08-19T10:43:57;5.37;;;3.47;;
22973;SDS011;11653;50.848;4.584;2022-08-19T10:46:36;3.83;;;3.30;;
22973;SDS011;11653;50.848;4.584;2022-08-19T10:49:06;6.90;;;3.37;;
22973;SDS011;11653;50.848;4.584;2022-08-19T10:51:34;5.63;;;3.63;;
22973;SDS011;11653;50.848;4.584;2022-08-19T10:54:18;5.27;;;3.03;;
22973;SDS011;11653;50.848;4.584;2022-08-19T10:56:44;5.07;;;3.33;;
22973;SDS011;11653;50.848;4.584;2022-08-19T10:59:17;6.53;;;3.10;;
22973;SDS011;11653;50.848;4.584;2022-08-19T11:01:47;4.27;;;2.80;;
22973;SDS011;11653;50.848;4.584;2022-08-19T11:04:14;4.60;;;3.30;;
22973;SDS011;11653;50.848;4.584;2022-08-19T11:06:42;5.97;;;3.57;;
22973;SDS011;11653;50.848;4.584;2022-08-19T11:09:22;6.50;;;3.60;;
22973;SDS011;11653;50.848;4.584;2022-08-19T11:11:50;7.40;;;3.87;;
22973;SDS011;11653;50.848;4.584;2022-08-19T11:14:18;9.13;;;4.27;;
22973;SDS011;11653;50.848;4.584;2022-08-19T11:16:46;10.67;;;4.83;;
22973;SDS011;11653;50.848;4.584;2022-08-19T11:19:13;9.57;;;4.70;;
22973;SDS011;11653;50.848;4.584;2022-08-19T11:21:42;7.63;;;5.23;;
22973;SDS011;11653;50.848;4.584;2022-08-19T11:24:19;8.90;;;4.97;;
22973;SDS011;11653;50.848;4.584;2022-08-19T11:26:47;7.93;;;4.73;;
22973;SDS011;11653;50.848;4.584;2022-08-19T11:29:14;8.43;;;4.80;;
22973;SDS011;11653;50.848;4.584;2022-08-19T11:31:43;7.03;;;4.70;;
22973;SDS011;11653;50.848;4.584;2022-08-19T11:34:11;8.23;;;5.33;;
22973;SDS011;11653;50.848;4.584;2022-08-19T11:36:41;9.23;;;5.40;;
22973;SDS011;11653;50.848;4.584;2022-08-19T11:39:10;12.57;;;6.20;;
22973;SDS011;11653;50.848;4.584;2022-08-19T11:41:37;10.37;;;5.87;;
22973;SDS011;11653;50.848;4.584;2022-08-19T11:44:04;10.33;;;5.63;;
22973;SDS011;11653;50.848;4.584;2022-08-19T11:46:30;8.60;;;5.53;;
22973;SDS011;11653;50.848;4.584;2022-08-19T11:48:57;10.57;;;5.93;;
22973;SDS011;11653;50.848;4.584;2022-08-19T11:51:24;10.67;;;6.47;;
22973;SDS011;11653;50.848;4.584;2022-08-19T11:53:51;9.20;;;7.50;;
22973;SDS011;11653;50.848;4.584;2022-08-19T11:56:18;11.93;;;8.20;;
22973;SDS011;11653;50.848;4.584;2022-08-19T11:58:44;10.97;;;7.50;;
22973;SDS011;11653;50.848;4.584;2022-08-19T12:01:11;9.77;;;7.17;;
22973;SDS011;11653;50.848;4.584;2022-08-19T12:03:41;8.90;;;7.07;;
22973;SDS011;11653;50.848;4.584;2022-08-19T12:06:08;9.87;;;7.00;;
22973;SDS011;11653;50.848;4.584;2022-08-19T12:08:36;11.13;;;7.20;;
22973;SDS011;11653;50.848;4.584;2022-08-19T12:11:02;11.63;;;7.90;;
22973;SDS011;11653;50.848;4.584;2022-08-19T12:13:29;10.20;;;7.67;;
22973;SDS011;11653;50.848;4.584;2022-08-19T12:15:55;10.67;;;7.47;;
22973;SDS011;11653;50.848;4.584;2022-08-19T12:18:22;9.40;;;6.80;;
22973;SDS011;11653;50.848;4.584;2022-08-19T12:20:51;10.07;;;7.37;;
22973;SDS011;11653;50.848;4.584;2022-08-19T12:23:19;9.27;;;6.70;;
22973;SDS011;11653;50.848;4.584;2022-08-19T12:25:46;9.50;;;6.53;;
22973;SDS011;11653;50.848;4.584;2022-08-19T12:28:17;7.17;;;6.43;;
22973;SDS011;11653;50.848;4.584;2022-08-19T12:30:44;11.13;;;6.23;;
22973;SDS011;11653;50.848;4.584;2022-08-19T12:33:10;9.17;;;6.33;;
22973;SDS011;11653;50.848;4.584;2022-08-19T12:35:39;7.63;;;5.43;;
22973;SDS011;11653;50.848;4.584;2022-08-19T12:38:06;8.43;;;5.77;;
22973;SDS011;11653;50.848;4.584;2022-08-19T12:40:31;6.87;;;5.50;;
22973;SDS011;11653;50.848;4.584;2022-08-19T12:42:57;6.80;;;5.20;;
22973;SDS011;11653;50.848;4.584;2022-08-19T12:45:23;6.90;;;5.90;;
22973;SDS011;11653;50.848;4.584;2022-08-19T12:47:49;10.77;;;4.83;;
22973;SDS011;11653;50.848;4.584;2022-08-19T12:50:16;7.90;;;4.70;;
22973;SDS011;11653;50.848;4.584;2022-08-19T12:52:42;8.40;;;4.63;;
22973;SDS011;11653;50.848;4.584;2022-08-19T12:55:08;4.43;;;4.03;;
22973;SDS011;11653;50.848;4.584;2022-08-19T12:57:35;7.27;;;4.93;;
22973;SDS011;11653;50.848;4.584;2022-08-19T13:02:35;6.87;;;4.77;;
22973;SDS011;11653;50.848;4.584;2022-08-19T13:05:02;6.43;;;3.90;;
22973;SDS011;11653;50.848;4.584;2022-08-19T13:07:29;4.90;;;3.80;;
22973;SDS011;11653;50.848;4.584;2022-08-19T13:09:56;4.55;;;3.53;;
22973;SDS011;11653;50.848;4.584;2022-08-19T13:12:22;4.80;;;3.55;;
22973;SDS011;11653;50.848;4.584;2022-08-19T13:14:52;9.25;;;3.42;;
22973;SDS011;11653;50.848;4.584;2022-08-19T13:17:18;4.30;;;3.22;;
22973;SDS011;11653;50.848;4.584;2022-08-19T13:19:45;3.97;;;2.97;;
22973;SDS011;11653;50.848;4.584;2022-08-19T13:22:10;7.65;;;2.88;;
22973;SDS011;11653;50.848;4.584;2022-08-19T13:24:37;5.68;;;3.28;;
22973;SDS011;11653;50.848;4.584;2022-08-19T13:27:03;3.45;;;2.20;;
22973;SDS011;11653;50.848;4.584;2022-08-19T13:29:28;3.45;;;2.42;;
22973;SDS011;11653;50.848;4.584;2022-08-19T13:32:12;2.33;;;2.13;;
22973;SDS011;11653;50.848;4.584;2022-08-19T13:34:57;2.58;;;1.83;;
22973;SDS011;11653;50.848;4.584;2022-08-19T13:37:22;2.97;;;1.45;;
22973;SDS011;11653;50.848;4.584;2022-08-19T13:40:06;2.90;;;1.57;;
22973;SDS011;11653;50.848;4.584;2022-08-19T13:42:38;2.35;;;1.60;;
22973;SDS011;11653;50.848;4.584;2022-08-19T13:45:05;4.22;;;1.63;;
22973;SDS011;11653;50.848;4.584;2022-08-19T13:47:32;1.50;;;1.40;;
22973;SDS011;11653;50.848;4.584;2022-08-19T13:49:59;6.00;;;1.90;;
22973;SDS011;11653;50.848;4.584;2022-08-19T13:52:27;4.30;;;1.60;;
22973;SDS011;11653;50.848;4.584;2022-08-19T13:54:53;3.45;;;1.50;;
22973;SDS011;11653;50.848;4.584;2022-08-19T13:57:19;2.30;;;1.33;;
22973;SDS011;11653;50.848;4.584;2022-08-19T13:59:44;2.80;;;1.50;;
22973;SDS011;11653;50.848;4.584;2022-08-19T14:02:10;2.93;;;1.47;;
22973;SDS011;11653;50.848;4.584;2022-08-19T14:04:36;7.10;;;1.90;;
22973;SDS011;11653;50.848;4.584;2022-08-19T14:07:02;1.90;;;1.48;;
22973;SDS011;11653;50.848;4.584;2022-08-19T14:09:29;1.65;;;1.25;;
22973;SDS011;11653;50.848;4.584;2022-08-19T14:11:55;3.40;;;1.25;;
22973;SDS011;11653;50.848;4.584;2022-08-19T14:14:20;2.38;;;1.50;;
22973;SDS011;11653;50.848;4.584;2022-08-19T14:16:46;2.97;;;1.30;;
22973;SDS011;11653;50.848;4.584;2022-08-19T14:19:13;3.72;;;1.35;;
22973;SDS011;11653;50.848;4.584;2022-08-19T14:21:38;2.03;;;1.40;;
22973;SDS011;11653;50.848;4.584;2022-08-19T14:24:06;3.08;;;1.40;;
22973;SDS011;11653;50.848;4.584;2022-08-19T14:26:32;1.93;;;1.30;;
22973;SDS011;11653;50.848;4.584;2022-08-19T14:28:57;3.27;;;1.77;;
22973;SDS011;11653;50.848;4.584;2022-08-19T14:31:23;3.07;;;1.30;;
22973;SDS011;11653;50.848;4.584;2022-08-19T14:33:50;2.63;;;1.13;;
22973;SDS011;11653;50.848;4.584;2022-08-19T14:36:16;2.35;;;1.30;;
22973;SDS011;11653;50.848;4.584;2022-08-19T14:38:43;4.33;;;1.27;;
22973;SDS011;11653;50.848;4.584;2022-08-19T14:41:13;2.57;;;0.90;;
22973;SDS011;11653;50.848;4.584;2022-08-19T14:43:45;1.77;;;1.33;;
22973;SDS011;11653;50.848;4.584;2022-08-19T14:46:16;4.43;;;1.00;;
22973;SDS011;11653;50.848;4.584;2022-08-19T14:48:44;2.40;;;1.73;;
22973;SDS011;11653;50.848;4.584;2022-08-19T14:51:10;4.27;;;1.50;;
22973;SDS011;11653;50.848;4.584;2022-08-19T14:53:36;3.23;;;1.30;;